sensor_id;sensor_type;location;lat;lon;timestamp;temperature;humidity
67161;DHT22;54088;52.238;21.104;2022-08-19T00:00:05;24.60;71.20
67161;DHT22;54088;52.238;21.104;2022-08-19T00:02:32;24.50;71.80
67161;DHT22;54088;52.238;21.104;2022-08-19T00:04:58;24.50;71.30
67161;DHT22;54088;52.238;21.104;2022-08-19T00:07:23;24.50;72.00
67161;DHT22;54088;52.238;21.104;2022-08-19T00:09:49;24.50;71.60
67161;DHT22;54088;52.238;21.104;2022-08-19T00:12:15;24.40;71.70
67161;DHT22;54088;52.238;21.104;2022-08-19T00:14:40;24.40;71.90
67161;DHT22;54088;52.238;21.104;2022-08-19T00:17:08;24.30;72.00
67161;DHT22;54088;52.238;21.104;2022-08-19T00:19:34;24.30;72.10
67161;DHT22;54088;52.238;21.104;2022-08-19T00:22:00;24.30;72.40
67161;DHT22;54088;52.238;21.104;2022-08-19T00:24:28;24.20;72.50
67161;DHT22;54088;52.238;21.104;2022-08-19T00:26:55;24.20;72.60
67161;DHT22;54088;52.238;21.104;2022-08-19T00:29:22;24.10;72.90
67161;DHT22;54088;52.238;21.104;2022-08-19T00:31:50;24.10;73.00
67161;DHT22;54088;52.238;21.104;2022-08-19T00:34:18;24.10;73.20
67161;DHT22;54088;52.238;21.104;2022-08-19T00:36:44;24.10;73.40
67161;DHT22;54088;52.238;21.104;2022-08-19T00:39:12;24.00;73.50
67161;DHT22;54088;52.238;21.104;2022-08-19T00:41:38;24.00;73.50
67161;DHT22;54088;52.238;21.104;2022-08-19T00:44:06;24.00;73.40
67161;DHT22;54088;52.238;21.104;2022-08-19T00:46:33;24.00;73.30
67161;DHT22;54088;52.238;21.104;2022-08-19T00:49:00;23.90;73.30
67161;DHT22;54088;52.238;21.104;2022-08-19T00:51:29;23.90;73.50
67161;DHT22;54088;52.238;21.104;2022-08-19T00:53:57;23.90;73.50
67161;DHT22;54088;52.238;21.104;2022-08-19T00:56:24;23.90;73.70
67161;DHT22;54088;52.238;21.104;2022-08-19T00:58:54;23.80;73.80
67161;DHT22;54088;52.238;21.104;2022-08-19T01:01:20;23.80;73.90
67161;DHT22;54088;52.238;21.104;2022-08-19T01:03:46;23.70;74.10
67161;DHT22;54088;52.238;21.104;2022-08-19T01:06:12;23.70;74.40
67161;DHT22;54088;52.238;21.104;2022-08-19T01:08:37;23.60;74.60
67161;DHT22;54088;52.238;21.104;2022-08-19T01:11:03;23.60;74.70
67161;DHT22;54088;52.238;21.104;2022-08-19T01:13:32;23.60;74.90
67161;DHT22;54088;52.238;21.104;2022-08-19T01:16:03;23.60;75.00
67161;DHT22;54088;52.238;21.104;2022-08-19T01:18:29;23.50;75.00
67161;DHT22;54088;52.238;21.104;2022-08-19T01:20:58;23.50;75.10
67161;DHT22;54088;52.238;21.104;2022-08-19T01:23:25;23.50;75.10
67161;DHT22;54088;52.238;21.104;2022-08-19T01:26:12;23.50;75.10
67161;DHT22;54088;52.238;21.104;2022-08-19T01:28:38;23.40;75.40
67161;DHT22;54088;52.238;21.104;2022-08-19T01:31:05;23.40;75.40
67161;DHT22;54088;52.238;21.104;2022-08-19T01:33:31;23.40;75.70
67161;DHT22;54088;52.238;21.104;2022-08-19T01:36:08;23.30;76.50
67161;DHT22;54088;52.238;21.104;2022-08-19T01:38:37;23.30;75.90
67161;DHT22;54088;52.238;21.104;2022-08-19T01:41:03;23.30;76.00
67161;DHT22;54088;52.238;21.104;2022-08-19T01:43:29;23.30;75.90
67161;DHT22;54088;52.238;21.104;2022-08-19T01:45:54;23.30;75.90
67161;DHT22;54088;52.238;21.104;2022-08-19T01:48:20;23.30;75.90
67161;DHT22;54088;52.238;21.104;2022-08-19T01:50:46;23.20;76.10
67161;DHT22;54088;52.238;21.104;2022-08-19T01:53:13;23.20;76.20
67161;DHT22;54088;52.238;21.104;2022-08-19T01:55:41;23.20;76.40
67161;DHT22;54088;52.238;21.104;2022-08-19T01:58:17;23.10;76.50
67161;DHT22;54088;52.238;21.104;2022-08-19T02:00:44;23.10;76.80
67161;DHT22;54088;52.238;21.104;2022-08-19T02:03:10;23.10;76.90
67161;DHT22;54088;52.238;21.104;2022-08-19T02:05:37;23.10;77.00
67161;DHT22;54088;52.238;21.104;2022-08-19T02:08:03;23.10;77.00
67161;DHT22;54088;52.238;21.104;2022-08-19T02:10:29;23.10;76.90
67161;DHT22;54088;52.238;21.104;2022-08-19T02:12:54;23.10;77.00
67161;DHT22;54088;52.238;21.104;2022-08-19T02:15:20;23.10;77.00
67161;DHT22;54088;52.238;21.104;2022-08-19T02:17:48;23.10;76.90
67161;DHT22;54088;52.238;21.104;2022-08-19T02:20:14;23.10;77.00
67161;DHT22;54088;52.238;21.104;2022-08-19T02:22:41;23.00;77.20
67161;DHT22;54088;52.238;21.104;2022-08-19T02:25:09;22.90;77.40
67161;DHT22;54088;52.238;21.104;2022-08-19T02:27:35;22.90;77.50
67161;DHT22;54088;52.238;21.104;2022-08-19T02:30:01;22.90;77.60
67161;DHT22;54088;52.238;21.104;2022-08-19T02:32:27;22.80;77.70
67161;DHT22;54088;52.238;21.104;2022-08-19T02:34:52;22.80;77.70
67161;DHT22;54088;52.238;21.104;2022-08-19T02:37:19;22.80;77.80
67161;DHT22;54088;52.238;21.104;2022-08-19T02:40:04;22.80;78.00
67161;DHT22;54088;52.238;21.104;2022-08-19T02:42:29;22.80;77.80
67161;DHT22;54088;52.238;21.104;2022-08-19T02:44:56;22.80;77.70
67161;DHT22;54088;52.238;21.104;2022-08-19T02:47:22;22.80;77.90
67161;DHT22;54088;52.238;21.104;2022-08-19T02:49:48;22.80;77.90
67161;DHT22;54088;52.238;21.104;2022-08-19T02:52:15;22.80;77.90
67161;DHT22;54088;52.238;21.104;2022-08-19T02:54:41;22.80;77.90
67161;DHT22;54088;52.238;21.104;2022-08-19T02:57:06;22.80;78.00
67161;DHT22;54088;52.238;21.104;2022-08-19T02:59:33;22.80;78.00
67161;DHT22;54088;52.238;21.104;2022-08-19T03:01:59;22.70;78.10
67161;DHT22;54088;52.238;21.104;2022-08-19T03:04:25;22.70;78.10
67161;DHT22;54088;52.238;21.104;2022-08-19T03:06:51;22.70;78.20
67161;DHT22;54088;52.238;21.104;2022-08-19T03:09:19;22.70;78.70
67161;DHT22;54088;52.238;21.104;2022-08-19T03:11:45;22.70;78.20
67161;DHT22;54088;52.238;21.104;2022-08-19T03:14:12;22.70;78.10
67161;DHT22;54088;52.238;21.104;2022-08-19T03:16:48;22.70;78.30
67161;DHT22;54088;52.238;21.104;2022-08-19T03:19:16;22.70;78.40
67161;DHT22;54088;52.238;21.104;2022-08-19T03:21:43;22.80;78.30
67161;DHT22;54088;52.238;21.104;2022-08-19T03:24:10;22.80;77.90
67161;DHT22;54088;52.238;21.104;2022-08-19T03:26:40;22.80;77.90
67161;DHT22;54088;52.238;21.104;2022-08-19T03:29:07;22.80;77.80
67161;DHT22;54088;52.238;21.104;2022-08-19T03:31:34;22.80;77.90
67161;DHT22;54088;52.238;21.104;2022-08-19T03:34:00;22.80;77.90
67161;DHT22;54088;52.238;21.104;2022-08-19T03:36:26;22.90;77.70
67161;DHT22;54088;52.238;21.104;2022-08-19T03:38:55;22.90;77.40
67161;DHT22;54088;52.238;21.104;2022-08-19T03:41:24;22.90;77.30
67161;DHT22;54088;52.238;21.104;2022-08-19T03:43:51;23.00;77.40
67161;DHT22;54088;52.238;21.104;2022-08-19T03:46:20;22.90;77.20
67161;DHT22;54088;52.238;21.104;2022-08-19T03:48:46;22.90;77.20
67161;DHT22;54088;52.238;21.104;2022-08-19T03:51:24;22.90;77.30
67161;DHT22;54088;52.238;21.104;2022-08-19T03:53:52;23.00;77.20
67161;DHT22;54088;52.238;21.104;2022-08-19T03:56:18;23.00;77.00
67161;DHT22;54088;52.238;21.104;2022-08-19T03:58:44;23.10;76.90
67161;DHT22;54088;52.238;21.104;2022-08-19T04:01:16;23.10;76.60
67161;DHT22;54088;52.238;21.104;2022-08-19T04:03:43;23.20;76.20
67161;DHT22;54088;52.238;21.104;2022-08-19T04:08:41;23.30;75.90
67161;DHT22;54088;52.238;21.104;2022-08-19T04:11:11;23.30;75.80
67161;DHT22;54088;52.238;21.104;2022-08-19T04:13:37;23.40;75.70
67161;DHT22;54088;52.238;21.104;2022-08-19T04:16:04;23.50;75.40
67161;DHT22;54088;52.238;21.104;2022-08-19T04:18:31;23.50;75.20
67161;DHT22;54088;52.238;21.104;2022-08-19T04:20:59;23.60;74.90
67161;DHT22;54088;52.238;21.104;2022-08-19T04:23:25;23.60;74.70
67161;DHT22;54088;52.238;21.104;2022-08-19T04:25:50;23.60;74.70
67161;DHT22;54088;52.238;21.104;2022-08-19T04:28:16;23.80;74.60
67161;DHT22;54088;52.238;21.104;2022-08-19T04:30:44;23.80;74.50
67161;DHT22;54088;52.238;21.104;2022-08-19T04:33:12;23.90;74.10
67161;DHT22;54088;52.238;21.104;2022-08-19T04:35:40;24.00;73.60
67161;DHT22;54088;52.238;21.104;2022-08-19T04:38:07;24.20;73.30
67161;DHT22;54088;52.238;21.104;2022-08-19T04:40:33;24.30;72.80
67161;DHT22;54088;52.238;21.104;2022-08-19T04:43:18;24.50;72.50
67161;DHT22;54088;52.238;21.104;2022-08-19T04:45:45;24.70;71.70
67161;DHT22;54088;52.238;21.104;2022-08-19T04:48:11;25.10;70.70
67161;DHT22;54088;52.238;21.104;2022-08-19T04:50:40;25.90;68.70
67161;DHT22;54088;52.238;21.104;2022-08-19T04:53:06;26.50;66.50
67161;DHT22;54088;52.238;21.104;2022-08-19T04:55:32;27.00;65.00
67161;DHT22;54088;52.238;21.104;2022-08-19T04:57:58;27.40;64.20
67161;DHT22;54088;52.238;21.104;2022-08-19T05:00:25;28.20;62.10
67161;DHT22;54088;52.238;21.104;2022-08-19T05:02:51;29.00;59.90
67161;DHT22;54088;52.238;21.104;2022-08-19T05:05:17;28.80;59.40
67161;DHT22;54088;52.238;21.104;2022-08-19T05:07:42;28.50;60.00
67161;DHT22;54088;52.238;21.104;2022-08-19T05:10:08;28.30;60.90
67161;DHT22;54088;52.238;21.104;2022-08-19T05:12:34;29.20;60.00
67161;DHT22;54088;52.238;21.104;2022-08-19T05:15:00;30.10;57.40
67161;DHT22;54088;52.238;21.104;2022-08-19T05:17:27;31.00;56.30
67161;DHT22;54088;52.238;21.104;2022-08-19T05:19:53;31.20;54.50
67161;DHT22;54088;52.238;21.104;2022-08-19T05:22:38;30.60;54.70
67161;DHT22;54088;52.238;21.104;2022-08-19T05:25:10;29.60;57.30
67161;DHT22;54088;52.238;21.104;2022-08-19T05:27:37;29.10;58.80
67161;DHT22;54088;52.238;21.104;2022-08-19T05:30:04;28.80;59.20
67161;DHT22;54088;52.238;21.104;2022-08-19T05:32:30;28.70;59.50
67161;DHT22;54088;52.238;21.104;2022-08-19T05:34:56;28.90;59.50
67161;DHT22;54088;52.238;21.104;2022-08-19T05:37:22;29.20;59.10
67161;DHT22;54088;52.238;21.104;2022-08-19T05:39:48;29.00;58.80
67161;DHT22;54088;52.238;21.104;2022-08-19T05:42:15;28.90;59.10
67161;DHT22;54088;52.238;21.104;2022-08-19T05:44:43;28.70;59.40
67161;DHT22;54088;52.238;21.104;2022-08-19T05:47:10;28.60;59.70
67161;DHT22;54088;52.238;21.104;2022-08-19T05:49:36;28.70;59.80
67161;DHT22;54088;52.238;21.104;2022-08-19T05:52:07;28.90;59.40
67161;DHT22;54088;52.238;21.104;2022-08-19T05:54:34;29.60;58.40
67161;DHT22;54088;52.238;21.104;2022-08-19T05:57:01;30.90;56.70
67161;DHT22;54088;52.238;21.104;2022-08-19T05:59:27;32.60;52.90
67161;DHT22;54088;52.238;21.104;2022-08-19T06:01:54;33.70;50.90
67161;DHT22;54088;52.238;21.104;2022-08-19T06:04:21;34.10;49.50
67161;DHT22;54088;52.238;21.104;2022-08-19T06:06:48;34.20;48.30
67161;DHT22;54088;52.238;21.104;2022-08-19T06:09:15;34.60;48.20
67161;DHT22;54088;52.238;21.104;2022-08-19T06:11:53;35.20;47.20
67161;DHT22;54088;52.238;21.104;2022-08-19T06:14:22;35.40;46.90
67161;DHT22;54088;52.238;21.104;2022-08-19T06:16:48;35.50;46.30
67161;DHT22;54088;52.238;21.104;2022-08-19T06:19:17;35.30;46.70
67161;DHT22;54088;52.238;21.104;2022-08-19T06:21:46;34.80;46.90
67161;DHT22;54088;52.238;21.104;2022-08-19T06:24:15;34.60;47.20
67161;DHT22;54088;52.238;21.104;2022-08-19T06:26:45;34.70;47.20
67161;DHT22;54088;52.238;21.104;2022-08-19T06:29:14;34.00;47.80
67161;DHT22;54088;52.238;21.104;2022-08-19T06:31:46;33.40;49.00
67161;DHT22;54088;52.238;21.104;2022-08-19T06:34:12;32.60;50.40
67161;DHT22;54088;52.238;21.104;2022-08-19T06:36:44;32.60;50.30
67161;DHT22;54088;52.238;21.104;2022-08-19T06:39:16;33.40;50.00
67161;DHT22;54088;52.238;21.104;2022-08-19T06:41:46;36.10;46.40
67161;DHT22;54088;52.238;21.104;2022-08-19T06:44:13;38.90;43.10
67161;DHT22;54088;52.238;21.104;2022-08-19T06:46:40;40.50;39.40
67161;DHT22;54088;52.238;21.104;2022-08-19T06:49:07;41.40;39.00
67161;DHT22;54088;52.238;21.104;2022-08-19T06:51:40;42.30;37.70
67161;DHT22;54088;52.238;21.104;2022-08-19T06:54:05;43.00;36.30
67161;DHT22;54088;52.238;21.104;2022-08-19T06:56:32;42.90;36.30
67161;DHT22;54088;52.238;21.104;2022-08-19T06:59:01;43.90;35.90
67161;DHT22;54088;52.238;21.104;2022-08-19T07:01:27;44.80;35.40
67161;DHT22;54088;52.238;21.104;2022-08-19T07:03:53;44.60;34.70
67161;DHT22;54088;52.238;21.104;2022-08-19T07:06:19;45.00;34.70
67161;DHT22;54088;52.238;21.104;2022-08-19T07:08:46;44.40;34.40
67161;DHT22;54088;52.238;21.104;2022-08-19T07:11:15;43.70;35.30
67161;DHT22;54088;52.238;21.104;2022-08-19T07:13:42;44.00;34.90
67161;DHT22;54088;52.238;21.104;2022-08-19T07:16:12;44.80;35.40
67161;DHT22;54088;52.238;21.104;2022-08-19T07:18:39;43.80;34.60
67161;DHT22;54088;52.238;21.104;2022-08-19T07:21:05;42.20;36.10
67161;DHT22;54088;52.238;21.104;2022-08-19T07:23:32;40.60;38.20
67161;DHT22;54088;52.238;21.104;2022-08-19T07:25:58;39.70;39.00
67161;DHT22;54088;52.238;21.104;2022-08-19T07:28:23;39.70;40.00
67161;DHT22;54088;52.238;21.104;2022-08-19T07:30:49;41.50;38.90
67161;DHT22;54088;52.238;21.104;2022-08-19T07:33:15;41.90;37.40
67161;DHT22;54088;52.238;21.104;2022-08-19T07:35:43;42.30;36.60
67161;DHT22;54088;52.238;21.104;2022-08-19T07:38:09;42.30;36.90
67161;DHT22;54088;52.238;21.104;2022-08-19T07:40:35;42.30;36.60
67161;DHT22;54088;52.238;21.104;2022-08-19T07:43:01;41.80;36.80
67161;DHT22;54088;52.238;21.104;2022-08-19T07:45:27;40.60;38.30
67161;DHT22;54088;52.238;21.104;2022-08-19T07:47:54;40.40;39.20
67161;DHT22;54088;52.238;21.104;2022-08-19T07:50:21;39.40;40.10
67161;DHT22;54088;52.238;21.104;2022-08-19T07:52:48;38.30;40.90
67161;DHT22;54088;52.238;21.104;2022-08-19T07:55:17;37.70;42.20
67161;DHT22;54088;52.238;21.104;2022-08-19T07:57:43;37.10;43.80
67161;DHT22;54088;52.238;21.104;2022-08-19T08:00:09;36.30;44.20
67161;DHT22;54088;52.238;21.104;2022-08-19T08:02:35;35.50;45.50
67161;DHT22;54088;52.238;21.104;2022-08-19T08:05:00;35.10;46.20
67161;DHT22;54088;52.238;21.104;2022-08-19T08:07:46;34.80;46.80
67161;DHT22;54088;52.238;21.104;2022-08-19T08:10:30;34.20;47.80
67161;DHT22;54088;52.238;21.104;2022-08-19T08:12:56;34.00;48.50
67161;DHT22;54088;52.238;21.104;2022-08-19T08:15:22;34.00;48.80
67161;DHT22;54088;52.238;21.104;2022-08-19T08:17:47;34.10;48.80
67161;DHT22;54088;52.238;21.104;2022-08-19T08:20:14;33.60;49.60
67161;DHT22;54088;52.238;21.104;2022-08-19T08:22:44;33.40;50.00
67161;DHT22;54088;52.238;21.104;2022-08-19T08:25:28;33.50;50.50
67161;DHT22;54088;52.238;21.104;2022-08-19T08:27:55;33.70;49.40
67161;DHT22;54088;52.238;21.104;2022-08-19T08:30:24;34.00;48.80
67161;DHT22;54088;52.238;21.104;2022-08-19T08:32:50;34.30;48.50
67161;DHT22;54088;52.238;21.104;2022-08-19T08:35:18;35.20;47.50
67161;DHT22;54088;52.238;21.104;2022-08-19T08:37:46;36.20;46.30
67161;DHT22;54088;52.238;21.104;2022-08-19T08:40:39;36.30;45.40
67161;DHT22;54088;52.238;21.104;2022-08-19T08:45:47;35.30;46.30
67161;DHT22;54088;52.238;21.104;2022-08-19T08:48:49;35.00;47.40
67161;DHT22;54088;52.238;21.104;2022-08-19T08:51:22;34.50;47.80
67161;DHT22;54088;52.238;21.104;2022-08-19T08:53:52;33.80;48.90
67161;DHT22;54088;52.238;21.104;2022-08-19T08:56:19;33.60;49.50
67161;DHT22;54088;52.238;21.104;2022-08-19T08:58:54;33.40;49.80
67161;DHT22;54088;52.238;21.104;2022-08-19T09:01:22;33.00;50.70
67161;DHT22;54088;52.238;21.104;2022-08-19T09:03:48;33.10;51.10
67161;DHT22;54088;52.238;21.104;2022-08-19T09:06:38;33.00;51.40
67161;DHT22;54088;52.238;21.104;2022-08-19T09:09:24;33.20;50.60
67161;DHT22;54088;52.238;21.104;2022-08-19T09:12:25;33.10;50.50
67161;DHT22;54088;52.238;21.104;2022-08-19T09:15:09;33.00;51.20
67161;DHT22;54088;52.238;21.104;2022-08-19T09:17:36;33.20;51.90
67161;DHT22;54088;52.238;21.104;2022-08-19T09:20:06;33.10;50.90
67161;DHT22;54088;52.238;21.104;2022-08-19T09:22:35;33.10;51.10
67161;DHT22;54088;52.238;21.104;2022-08-19T09:25:01;33.00;51.30
67161;DHT22;54088;52.238;21.104;2022-08-19T09:27:27;33.00;51.80
67161;DHT22;54088;52.238;21.104;2022-08-19T09:29:54;33.00;51.60
67161;DHT22;54088;52.238;21.104;2022-08-19T09:32:21;32.90;51.90
67161;DHT22;54088;52.238;21.104;2022-08-19T09:34:47;32.90;51.70
67161;DHT22;54088;52.238;21.104;2022-08-19T09:37:13;33.00;51.90
67161;DHT22;54088;52.238;21.104;2022-08-19T09:39:39;32.90;51.60
67161;DHT22;54088;52.238;21.104;2022-08-19T09:42:07;32.70;51.90
67161;DHT22;54088;52.238;21.104;2022-08-19T09:44:38;32.70;51.80
67161;DHT22;54088;52.238;21.104;2022-08-19T09:47:04;32.90;51.70
67161;DHT22;54088;52.238;21.104;2022-08-19T10:09:42;33.20;50.00
67161;DHT22;54088;52.238;21.104;2022-08-19T10:12:07;33.30;50.30
67161;DHT22;54088;52.238;21.104;2022-08-19T10:14:34;33.40;49.80
67161;DHT22;54088;52.238;21.104;2022-08-19T10:17:01;33.50;49.40
67161;DHT22;54088;52.238;21.104;2022-08-19T10:19:28;33.50;48.80
67161;DHT22;54088;52.238;21.104;2022-08-19T10:21:57;33.50;49.40
67161;DHT22;54088;52.238;21.104;2022-08-19T10:24:23;33.30;50.20
67161;DHT22;54088;52.238;21.104;2022-08-19T10:26:51;33.20;50.30
67161;DHT22;54088;52.238;21.104;2022-08-19T10:29:16;33.10;50.10
67161;DHT22;54088;52.238;21.104;2022-08-19T10:31:42;33.10;50.30
67161;DHT22;54088;52.238;21.104;2022-08-19T10:34:08;33.20;50.90
67161;DHT22;54088;52.238;21.104;2022-08-19T10:36:36;33.00;49.20
67161;DHT22;54088;52.238;21.104;2022-08-19T10:39:08;32.70;50.30
67161;DHT22;54088;52.238;21.104;2022-08-19T10:41:36;32.70;50.80
67161;DHT22;54088;52.238;21.104;2022-08-19T10:44:07;32.90;50.50
67161;DHT22;54088;52.238;21.104;2022-08-19T10:46:36;32.90;48.90
67161;DHT22;54088;52.238;21.104;2022-08-19T10:49:04;33.00;49.00
67161;DHT22;54088;52.238;21.104;2022-08-19T10:51:30;33.10;49.30
67161;DHT22;54088;52.238;21.104;2022-08-19T10:54:15;33.30;49.90
67161;DHT22;54088;52.238;21.104;2022-08-19T10:56:41;33.30;49.10
67161;DHT22;54088;52.238;21.104;2022-08-19T11:01:49;33.10;47.80
67161;DHT22;54088;52.238;21.104;2022-08-19T11:04:15;33.20;48.40
67161;DHT22;54088;52.238;21.104;2022-08-19T11:06:44;33.30;47.80
67161;DHT22;54088;52.238;21.104;2022-08-19T11:09:11;33.40;47.70
67161;DHT22;54088;52.238;21.104;2022-08-19T11:11:37;33.40;46.30
67161;DHT22;54088;52.238;21.104;2022-08-19T11:14:10;33.40;46.40
67161;DHT22;54088;52.238;21.104;2022-08-19T11:16:37;33.20;46.70
67161;DHT22;54088;52.238;21.104;2022-08-19T11:19:05;33.20;47.20
67161;DHT22;54088;52.238;21.104;2022-08-19T11:21:35;33.20;46.70
67161;DHT22;54088;52.238;21.104;2022-08-19T11:24:05;33.30;47.40
67161;DHT22;54088;52.238;21.104;2022-08-19T11:26:31;33.30;47.20
67161;DHT22;54088;52.238;21.104;2022-08-19T11:28:58;33.30;46.20
67161;DHT22;54088;52.238;21.104;2022-08-19T11:31:27;33.30;46.60
67161;DHT22;54088;52.238;21.104;2022-08-19T11:33:53;33.20;46.70
67161;DHT22;54088;52.238;21.104;2022-08-19T11:36:20;33.20;46.40
67161;DHT22;54088;52.238;21.104;2022-08-19T11:38:47;33.30;46.80
67161;DHT22;54088;52.238;21.104;2022-08-19T11:41:15;33.30;46.70
67161;DHT22;54088;52.238;21.104;2022-08-19T11:43:41;33.20;47.00
67161;DHT22;54088;52.238;21.104;2022-08-19T11:46:09;33.10;47.70
67161;DHT22;54088;52.238;21.104;2022-08-19T11:48:36;33.00;47.80
67161;DHT22;54088;52.238;21.104;2022-08-19T11:51:11;33.10;48.00
67161;DHT22;54088;52.238;21.104;2022-08-19T11:53:38;33.20;47.70
67161;DHT22;54088;52.238;21.104;2022-08-19T11:56:05;33.20;47.40
67161;DHT22;54088;52.238;21.104;2022-08-19T11:58:31;33.10;46.80
67161;DHT22;54088;52.238;21.104;2022-08-19T12:00:57;33.00;47.50
67161;DHT22;54088;52.238;21.104;2022-08-19T12:03:23;33.10;47.70
67161;DHT22;54088;52.238;21.104;2022-08-19T12:05:49;33.10;47.00
67161;DHT22;54088;52.238;21.104;2022-08-19T12:08:16;33.10;47.10
67161;DHT22;54088;52.238;21.104;2022-08-19T12:10:42;33.10;47.40
67161;DHT22;54088;52.238;21.104;2022-08-19T12:13:09;33.20;46.50
67161;DHT22;54088;52.238;21.104;2022-08-19T12:15:39;33.20;46.60
67161;DHT22;54088;52.238;21.104;2022-08-19T12:18:07;33.20;46.00
67161;DHT22;54088;52.238;21.104;2022-08-19T12:20:38;33.20;45.60
67161;DHT22;54088;52.238;21.104;2022-08-19T12:23:05;33.30;45.80
67161;DHT22;54088;52.238;21.104;2022-08-19T12:25:32;33.20;46.00
67161;DHT22;54088;52.238;21.104;2022-08-19T12:28:00;33.10;45.40
67161;DHT22;54088;52.238;21.104;2022-08-19T12:30:25;33.10;45.80
67161;DHT22;54088;52.238;21.104;2022-08-19T12:32:51;33.10;45.90
67161;DHT22;54088;52.238;21.104;2022-08-19T12:35:18;33.10;45.90
67161;DHT22;54088;52.238;21.104;2022-08-19T12:37:46;33.10;46.20
67161;DHT22;54088;52.238;21.104;2022-08-19T12:40:13;33.10;46.00
67161;DHT22;54088;52.238;21.104;2022-08-19T12:42:39;33.00;46.00
67161;DHT22;54088;52.238;21.104;2022-08-19T12:45:12;33.00;46.00
67161;DHT22;54088;52.238;21.104;2022-08-19T12:47:39;32.90;46.30
67161;DHT22;54088;52.238;21.104;2022-08-19T12:50:05;32.80;46.00
67161;DHT22;54088;52.238;21.104;2022-08-19T12:52:35;32.80;46.00
67161;DHT22;54088;52.238;21.104;2022-08-19T12:55:08;32.80;46.20
67161;DHT22;54088;52.238;21.104;2022-08-19T12:57:34;32.80;46.10
67161;DHT22;54088;52.238;21.104;2022-08-19T13:00:10;32.80;46.10
67161;DHT22;54088;52.238;21.104;2022-08-19T13:02:38;32.80;46.20
67161;DHT22;54088;52.238;21.104;2022-08-19T13:05:05;32.90;46.00
67161;DHT22;54088;52.238;21.104;2022-08-19T13:07:32;32.90;45.70
67161;DHT22;54088;52.238;21.104;2022-08-19T13:09:58;32.90;45.40
67161;DHT22;54088;52.238;21.104;2022-08-19T13:12:24;33.00;45.40
67161;DHT22;54088;52.238;21.104;2022-08-19T13:14:52;33.00;44.90
67161;DHT22;54088;52.238;21.104;2022-08-19T13:17:18;32.90;46.00
67161;DHT22;54088;52.238;21.104;2022-08-19T13:19:44;32.80;47.10
67161;DHT22;54088;52.238;21.104;2022-08-19T13:22:10;32.60;46.20
67161;DHT22;54088;52.238;21.104;2022-08-19T13:24:37;32.50;47.40
67161;DHT22;54088;52.238;21.104;2022-08-19T13:27:03;32.50;47.20
67161;DHT22;54088;52.238;21.104;2022-08-19T13:29:29;32.40;47.10
67161;DHT22;54088;52.238;21.104;2022-08-19T13:32:13;32.40;46.10
67161;DHT22;54088;52.238;21.104;2022-08-19T13:34:58;32.40;45.70
67161;DHT22;54088;52.238;21.104;2022-08-19T13:37:23;32.40;45.40
67161;DHT22;54088;52.238;21.104;2022-08-19T13:40:08;32.40;47.00
67161;DHT22;54088;52.238;21.104;2022-08-19T13:42:39;32.40;45.40
67161;DHT22;54088;52.238;21.104;2022-08-19T13:45:05;32.30;46.50
67161;DHT22;54088;52.238;21.104;2022-08-19T13:47:32;32.40;45.30
67161;DHT22;54088;52.238;21.104;2022-08-19T13:50:02;32.40;46.60
67161;DHT22;54088;52.238;21.104;2022-08-19T13:52:28;32.40;46.10
67161;DHT22;54088;52.238;21.104;2022-08-19T13:54:53;32.30;46.00
67161;DHT22;54088;52.238;21.104;2022-08-19T13:57:19;32.40;46.20
67161;DHT22;54088;52.238;21.104;2022-08-19T13:59:45;32.40;45.90
67161;DHT22;54088;52.238;21.104;2022-08-19T14:02:10;32.30;45.70
67161;DHT22;54088;52.238;21.104;2022-08-19T14:04:36;32.30;46.20
67161;DHT22;54088;52.238;21.104;2022-08-19T14:07:03;32.30;45.60
67161;DHT22;54088;52.238;21.104;2022-08-19T14:09:29;32.40;46.30
67161;DHT22;54088;52.238;21.104;2022-08-19T14:11:55;32.40;45.90
67161;DHT22;54088;52.238;21.104;2022-08-19T14:14:21;32.40;45.50
67161;DHT22;54088;52.238;21.104;2022-08-19T14:16:47;32.30;46.20
67161;DHT22;54088;52.238;21.104;2022-08-19T14:19:13;32.20;47.00
67161;DHT22;54088;52.238;21.104;2022-08-19T14:21:39;32.10;47.20
67161;DHT22;54088;52.238;21.104;2022-08-19T14:24:06;32.20;45.80
67161;DHT22;54088;52.238;21.104;2022-08-19T14:26:32;32.10;46.90
67161;DHT22;54088;52.238;21.104;2022-08-19T14:28:58;32.10;45.80
67161;DHT22;54088;52.238;21.104;2022-08-19T14:31:24;32.20;45.40
67161;DHT22;54088;52.238;21.104;2022-08-19T14:33:50;32.20;45.40
67161;DHT22;54088;52.238;21.104;2022-08-19T14:36:17;32.20;46.10
67161;DHT22;54088;52.238;21.104;2022-08-19T14:38:43;32.20;45.20
67161;DHT22;54088;52.238;21.104;2022-08-19T14:41:13;32.20;45.90
67161;DHT22;54088;52.238;21.104;2022-08-19T14:43:40;32.10;46.10
67161;DHT22;54088;52.238;21.104;2022-08-19T14:46:07;32.20;46.10
67161;DHT22;54088;52.238;21.104;2022-08-19T14:48:35;32.20;46.30
67161;DHT22;54088;52.238;21.104;2022-08-19T14:51:04;32.10;46.10
67161;DHT22;54088;52.238;21.104;2022-08-19T14:53:29;32.00;46.50
67161;DHT22;54088;52.238;21.104;2022-08-19T14:55:55;32.10;46.60
67161;DHT22;54088;52.238;21.104;2022-08-19T14:58:21;32.00;47.00
67161;DHT22;54088;52.238;21.104;2022-08-19T15:00:48;32.00;46.40
67161;DHT22;54088;52.238;21.104;2022-08-19T15:03:13;32.10;46.80
67161;DHT22;54088;52.238;21.104;2022-08-19T15:05:39;32.00;47.00
67161;DHT22;54088;52.238;21.104;2022-08-19T15:08:05;32.10;47.30
67161;DHT22;54088;52.238;21.104;2022-08-19T15:10:30;32.10;47.30
67161;DHT22;54088;52.238;21.104;2022-08-19T15:12:56;32.00;46.40
67161;DHT22;54088;52.238;21.104;2022-08-19T15:15:22;32.10;46.80
67161;DHT22;54088;52.238;21.104;2022-08-19T15:17:48;32.00;47.00
67161;DHT22;54088;52.238;21.104;2022-08-19T15:20:18;32.00;46.30
67161;DHT22;54088;52.238;21.104;2022-08-19T15:22:45;32.00;46.20
67161;DHT22;54088;52.238;21.104;2022-08-19T15:25:13;32.00;46.60
67161;DHT22;54088;52.238;21.104;2022-08-19T15:27:39;32.00;46.80
67161;DHT22;54088;52.238;21.104;2022-08-19T15:30:09;32.00;46.20
67161;DHT22;54088;52.238;21.104;2022-08-19T15:32:36;31.90;46.60
67161;DHT22;54088;52.238;21.104;2022-08-19T15:35:03;31.90;47.00
67161;DHT22;54088;52.238;21.104;2022-08-19T15:37:29;31.80;47.20
67161;DHT22;54088;52.238;21.104;2022-08-19T15:39:55;31.70;47.60
67161;DHT22;54088;52.238;21.104;2022-08-19T15:42:21;31.70;47.40
67161;DHT22;54088;52.238;21.104;2022-08-19T15:44:47;31.70;47.90
67161;DHT22;54088;52.238;21.104;2022-08-19T15:47:13;31.70;46.70